Connecticut River @ Hartford, Ct

Connecticut River at Hartford
 Total Drainage Area: 10,480 sq. miles 
 Drainage Area Controlled by Corps Dams: 1,570 sq. miles (15%) 
 Warning Flow/Stage: ?? cfs / 16.0 feet 
 Flood Flow/Stage: ?? cfs / 22.0 feet 
Date Time
(Eastern)
Stage
(ft)
Flow
(cfs)
CSM
(cfs / sq. mi.)
Jun-16 08:30 pm 2.40 6,400 .6
Jun-16 07:30 pm 1.89 4,780 .5
Jun-16 06:30 pm 1.79 4,580 .4
Jun-16 05:30 pm 1.89 4,780 .5
Jun-16 04:30 pm 2.05 5,175 .5
Jun-16 03:30 pm 2.21 5,735 .6
Jun-16 02:30 pm 2.37 6,295 .6
Jun-16 01:30 pm 2.53 6,855 .7
Jun-16 12:30 pm 2.66 7,310 .7
Jun-16 11:30 am 2.76 7,660 .7
Jun-16 10:30 am 2.66 7,310 .7
Jun-16 09:30 am 2.35 6,225 .6
Jun-16 08:30 am 2.09 5,315 .5
Jun-16 07:30 am 2.10 5,350 .5
Jun-16 06:30 am 2.26 5,910 .6
Jun-16 05:30 am 2.49 6,715 .6
Jun-16 04:30 am 2.73 7,555 .7
Jun-16 03:30 am 2.97 8,395 .8
Jun-16 02:30 am 3.21 9,235 .9
Jun-16 01:30 am 3.42 9,970 1.0
Jun-16 12:30 am 3.62 10,670 1.0
Jun-15 11:30 pm 3.77 11,195 1.1
Jun-15 10:30 pm 3.79 11,265 1.1
Jun-15 09:30 pm 3.54 10,390 1.0
Jun-15 08:30 pm 3.12 8,920 .9
Report Generated June 16, 2024 08:47 pm